Fallon, North Dakota
Current Conditions -  °F | °C
As of 11:55 PM on Thursday 30 Oct 2014 (Local Time) from KY19 Reporting Station
Few Clouds Few Clouds  
Wind Chill: 25°   Ceiling: Unl
Heat Index: 25°   Visibility: 10mi
Dew Point: 23°   Wind: 3mph
Humidity: 93%   Direction: 70°ENE
Pressure: 30.57"   Gusts: NA
Location:  46.4673°N, 101.102°W
Report Text: KY19 310455Z AUTO 07003KT 10SM FEW030 M04/M05 A3057 RMK AO2
Loading
Personal Weather Stations






























Interactive Weather Map
Tropical Storm Tracking
New forecast layout! Learn more

10-Day Weather Forecast

Advertisements
Track Severe Weather on mobile